createdAt,value
2018-12-22T00:01:25.789Z,100.00
2018-12-22T00:06:22.997Z,100.00
2018-12-22T00:11:18.444Z,100.00
2018-12-22T00:16:16.523Z,100.00
2018-12-22T00:21:17.715Z,100.00
2018-12-22T00:26:19.495Z,100.00
2018-12-22T00:31:23.904Z,100.00
2018-12-22T00:36:22.264Z,100.00
2018-12-22T00:41:19.498Z,100.00
2018-12-22T00:46:19.857Z,100.00
2018-12-22T00:51:18.155Z,100.00
2018-12-22T00:56:13.403Z,100.00
2018-12-22T01:01:08.226Z,100.00
2018-12-22T01:06:04.098Z,100.00
2018-12-22T01:10:59.431Z,100.00
2018-12-22T01:15:54.268Z,100.00
2018-12-22T01:20:48.982Z,100.00
2018-12-22T01:25:43.788Z,100.00
2018-12-22T01:30:38.663Z,100.00
2018-12-22T01:35:33.432Z,100.00
2018-12-22T01:40:29.429Z,100.00
2018-12-22T01:45:25.350Z,100.00
2018-12-22T01:50:23.969Z,100.00
2018-12-22T01:55:18.823Z,100.00
2018-12-22T02:00:13.800Z,100.00
2018-12-22T02:05:10.417Z,100.00
2018-12-22T02:10:06.521Z,100.00
2018-12-22T02:15:02.302Z,100.00
2018-12-22T02:19:56.990Z,100.00
2018-12-22T02:24:53.373Z,100.00
2018-12-22T02:29:48.108Z,100.00
2018-12-22T02:34:43.623Z,100.00
2018-12-22T02:39:38.468Z,100.00
2018-12-22T02:44:33.301Z,100.00
2018-12-22T02:49:27.975Z,100.00
2018-12-22T02:54:22.769Z,100.00
2018-12-22T02:59:18.710Z,100.00
2018-12-22T03:04:13.399Z,100.00
2018-12-22T03:09:08.544Z,100.00
2018-12-22T03:14:03.456Z,100.00
2018-12-22T03:18:58.068Z,100.00
2018-12-22T03:23:52.785Z,100.00
2018-12-22T03:28:47.666Z,100.00
2018-12-22T03:33:42.729Z,100.00
2018-12-22T03:38:37.390Z,100.00
2018-12-22T03:43:32.173Z,100.00
2018-12-22T03:48:27.104Z,100.00
2018-12-22T03:53:23.020Z,100.00
2018-12-22T03:58:17.697Z,100.00
2018-12-22T04:03:12.736Z,100.00
2018-12-22T04:08:07.361Z,100.00
2018-12-22T04:13:02.276Z,100.00
2018-12-22T04:17:56.919Z,100.00
2018-12-22T04:22:51.564Z,100.00
2018-12-22T04:27:46.318Z,100.00
2018-12-22T04:32:41.952Z,100.00
2018-12-22T04:37:37.074Z,100.00
2018-12-22T04:42:31.924Z,100.00
2018-12-22T04:47:26.716Z,100.00
2018-12-22T04:52:21.755Z,100.00
2018-12-22T04:57:16.857Z,100.00
2018-12-22T05:02:11.682Z,100.00
2018-12-22T05:07:06.719Z,100.00
2018-12-22T05:12:01.674Z,100.00
2018-12-22T05:16:56.413Z,100.00
2018-12-22T05:21:51.457Z,100.00
2018-12-22T05:26:47.161Z,100.00
2018-12-22T05:31:42.085Z,100.00
2018-12-22T05:36:37.507Z,100.00
2018-12-22T05:41:32.522Z,100.00
2018-12-22T05:46:27.552Z,100.00
2018-12-22T05:51:22.589Z,100.00
2018-12-22T05:56:17.734Z,100.00
2018-12-22T06:01:12.770Z,100.00
2018-12-22T06:06:07.527Z,100.00
2018-12-22T06:11:02.321Z,100.00
2018-12-22T06:15:57.117Z,100.00
2018-12-22T06:20:51.881Z,100.00
2018-12-22T06:25:48.501Z,100.00
2018-12-22T06:30:43.228Z,100.00
2018-12-22T06:35:38.065Z,100.00
2018-12-22T06:40:39.530Z,100.00
2018-12-22T06:45:34.960Z,100.00
2018-12-22T06:50:30.947Z,100.00
2018-12-22T06:55:26.329Z,100.00
2018-12-22T07:00:21.512Z,100.00
2018-12-22T07:05:16.477Z,100.00
2018-12-22T07:10:11.463Z,100.00
2018-12-22T07:15:31.204Z,100.00
2018-12-22T07:36:37.722Z,100.00
2018-12-22T07:41:34.439Z,100.00
2018-12-22T07:46:31.234Z,100.00
2018-12-22T07:51:26.289Z,100.00
2018-12-22T07:56:21.928Z,100.00
2018-12-22T08:01:16.886Z,100.00
2018-12-22T08:06:16.680Z,100.00
2018-12-22T08:11:13.300Z,100.00
2018-12-22T08:16:08.436Z,100.00
2018-12-22T08:30:33.909Z,100.00
2018-12-22T08:41:25.778Z,100.00
2018-12-22T08:46:20.544Z,100.00
2018-12-22T08:51:15.602Z,100.00
2018-12-22T08:56:16.678Z,100.00
2018-12-22T09:01:11.420Z,100.00
2018-12-22T09:06:06.733Z,100.00
2018-12-22T09:11:02.541Z,99.87
2018-12-22T09:15:58.565Z,100.00
2018-12-22T09:20:53.346Z,99.43
2018-12-22T09:25:48.988Z,99.44
2018-12-22T09:30:44.006Z,96.00
2018-12-22T09:35:41.935Z,97.32
2018-12-22T09:40:37.922Z,99.09
2018-12-22T09:51:35.872Z,97.07
2018-12-22T09:56:44.354Z,97.10
2018-12-22T10:23:50.633Z,100.00
2018-12-22T10:30:13.105Z,100.00
2018-12-22T10:35:26.819Z,100.00
2018-12-22T10:40:36.925Z,99.96
2018-12-22T10:56:58.930Z,96.90
2018-12-22T11:08:43.674Z,94.18
2018-12-22T11:20:29.919Z,91.70
2018-12-22T11:25:42.753Z,92.70
2018-12-22T11:38:38.513Z,90.92
2018-12-22T12:19:32.159Z,93.73
2018-12-22T12:25:03.357Z,91.80
2018-12-22T12:30:29.353Z,89.96
2018-12-22T12:41:56.051Z,87.34
2018-12-22T13:11:56.000Z,86.50
2018-12-22T13:22:41.631Z,88.46
2018-12-22T13:27:54.632Z,88.98
2018-12-22T13:32:57.180Z,86.91
2018-12-22T13:44:30.461Z,87.75
2018-12-22T14:28:15.310Z,86.00
2018-12-22T14:38:40.298Z,88.22
2018-12-22T15:12:33.731Z,89.92
2018-12-22T15:17:28.450Z,90.36
2018-12-22T15:22:23.175Z,91.02
2018-12-22T15:27:17.842Z,91.45
2018-12-22T15:32:12.517Z,91.87
2018-12-22T15:37:07.214Z,93.26
2018-12-22T15:42:04.246Z,96.84
2018-12-22T15:46:58.929Z,99.62
2018-12-22T15:51:53.956Z,100.00
2018-12-22T15:56:48.836Z,100.00
2018-12-22T16:01:43.496Z,100.00
2018-12-22T16:06:38.761Z,100.00
2018-12-22T16:11:54.176Z,100.00
2018-12-22T16:16:49.729Z,100.00
2018-12-22T16:21:44.549Z,100.00
2018-12-22T16:26:39.398Z,100.00
2018-12-22T16:31:34.479Z,99.42
2018-12-22T16:36:29.304Z,100.00
2018-12-22T16:41:24.054Z,98.55
2018-12-22T16:46:19.970Z,97.32
2018-12-22T16:51:14.826Z,94.76
2018-12-22T16:56:10.073Z,93.82
2018-12-22T17:02:34.802Z,91.62
2018-12-22T17:07:29.631Z,89.67
2018-12-22T17:12:24.883Z,91.18
2018-12-22T17:17:19.569Z,91.62
2018-12-22T17:22:22.023Z,91.14
2018-12-22T17:27:18.203Z,89.34
2018-12-22T17:32:12.975Z,89.63
2018-12-22T17:37:07.939Z,88.62
2018-12-22T17:42:07.573Z,88.59
2018-12-22T17:47:02.307Z,90.26
2018-12-22T17:51:57.014Z,91.55
2018-12-22T17:56:51.732Z,92.53
2018-12-22T18:01:46.699Z,91.09
2018-12-22T18:06:42.385Z,93.85
2018-12-22T18:11:46.901Z,92.33
2018-12-22T18:16:49.930Z,91.97
2018-12-22T18:21:51.029Z,96.44
2018-12-22T18:26:45.673Z,99.19
2018-12-22T18:31:44.261Z,100.00
2018-12-22T18:37:17.529Z,100.00
2018-12-22T18:42:13.017Z,100.00
2018-12-22T18:47:07.869Z,100.00
2018-12-22T18:52:02.679Z,100.00
2018-12-22T18:57:07.540Z,100.00
2018-12-22T19:02:02.187Z,99.57
2018-12-22T19:14:12.488Z,96.24
2018-12-22T19:19:07.457Z,96.53
2018-12-22T19:24:05.318Z,95.58
2018-12-22T19:29:00.307Z,93.85
2018-12-22T19:33:57.158Z,93.72
2018-12-22T19:38:52.352Z,92.89
2018-12-22T19:43:53.156Z,94.26
2018-12-22T19:48:48.061Z,93.49
2018-12-22T19:53:43.105Z,95.37
2018-12-22T19:58:37.909Z,97.37
2018-12-22T20:03:32.971Z,100.00
2018-12-22T20:08:28.000Z,100.00
2018-12-22T20:13:22.939Z,100.00
2018-12-22T20:18:17.806Z,100.00
2018-12-22T20:23:13.509Z,100.00
2018-12-22T20:28:08.862Z,100.00
2018-12-22T20:33:03.795Z,100.00
2018-12-22T20:38:08.964Z,100.00
2018-12-22T20:43:21.909Z,100.00
2018-12-22T21:16:26.681Z,100.00
2018-12-22T21:21:21.589Z,100.00
2018-12-22T21:26:16.483Z,100.00
2018-12-22T21:31:11.637Z,100.00
2018-12-22T21:36:06.520Z,100.00
2018-12-22T21:41:01.630Z,100.00
2018-12-22T21:45:56.537Z,100.00
2018-12-22T21:50:51.424Z,100.00
2018-12-22T21:55:46.472Z,100.00
2018-12-22T22:00:43.300Z,100.00
2018-12-22T22:05:38.282Z,100.00
2018-12-22T22:10:33.217Z,100.00
2018-12-22T22:15:28.487Z,100.00
2018-12-22T22:20:23.482Z,100.00
2018-12-22T22:25:18.759Z,100.00
2018-12-22T22:30:13.857Z,100.00
2018-12-22T22:35:08.767Z,100.00
2018-12-22T22:40:03.824Z,100.00
2018-12-22T22:45:01.473Z,100.00
2018-12-22T22:50:09.654Z,100.00
2018-12-22T22:55:04.868Z,100.00
2018-12-22T22:59:59.771Z,100.00
2018-12-22T23:04:54.918Z,100.00
2018-12-22T23:09:59.135Z,100.00
2018-12-22T23:14:54.176Z,100.00
2018-12-22T23:19:58.349Z,100.00
2018-12-22T23:24:53.170Z,100.00
2018-12-22T23:29:49.266Z,100.00
2018-12-22T23:34:44.562Z,100.00
2018-12-22T23:39:39.681Z,100.00
2018-12-22T23:44:35.924Z,100.00
2018-12-22T23:49:31.460Z,100.00
2018-12-22T23:54:27.924Z,100.00
2018-12-22T23:59:26.265Z,100.00
